Time;durP1;ratioP1;P1;durP2;ratioP2;P2;SDS_P1;SDS_P2;PMS_P1;PMS_P2;Temp;Humidity;BMP_temperature;BMP_pressure;BME280_temperature;BME280_humidity;BME280_pressure;Samples;Min_cycle;Max_cycle;Signal;HPM_P1;HPM_P2
2023/10/24 00:02:03;;;;;;;9.32;6.00;;;12.60;99.90;;;;;;4982593;28;20049;-73
2023/10/24 00:04:49;;;;;;;7.93;6.40;;;12.60;99.90;;;;;;4986010;28;20042;-74
2023/10/24 00:07:35;;;;;;;8.25;5.82;;;12.60;99.90;;;;;;4976556;28;20038;-73
2023/10/24 00:10:21;;;;;;;8.00;5.70;;;12.60;99.90;;;;;;4973380;28;20078;-73
2023/10/24 00:13:07;;;;;;;9.90;5.80;;;12.60;99.90;;;;;;4979396;28;20085;-73
2023/10/24 00:15:53;;;;;;;7.28;5.80;;;12.60;99.90;;;;;;4974358;28;20046;-73
2023/10/24 00:18:39;;;;;;;15.40;6.03;;;12.60;99.90;;;;;;4976924;28;20053;-73
2023/10/24 00:21:25;;;;;;;12.98;6.18;;;12.60;99.90;;;;;;4973314;28;20039;-73
2023/10/24 00:24:12;;;;;;;9.52;6.45;;;12.60;99.90;;;;;;4976373;28;20045;-73
2023/10/24 00:26:58;;;;;;;8.20;6.10;;;12.60;99.90;;;;;;5011126;28;20046;-76
2023/10/24 00:29:44;;;;;;;10.05;5.57;;;12.60;99.90;;;;;;4983288;28;20185;-76
2023/10/24 00:32:30;;;;;;;10.18;5.90;;;12.60;99.90;;;;;;4984631;28;20501;-76
2023/10/24 00:35:17;;;;;;;14.48;6.90;;;12.60;99.90;;;;;;4960762;28;20471;-76
2023/10/24 00:38:03;;;;;;;11.38;6.72;;;12.60;99.90;;;;;;4982875;28;20042;-76
2023/10/24 00:40:51;;;;;;;11.07;6.07;;;12.60;99.90;;;;;;4941159;29;20161;-76
2023/10/24 00:43:37;;;;;;;10.77;6.40;;;12.60;99.90;;;;;;4938087;29;20047;-76
2023/10/24 00:46:24;;;;;;;8.63;5.70;;;12.60;99.90;;;;;;4933257;28;20039;-76
2023/10/24 00:49:10;;;;;;;9.63;5.93;;;12.60;99.90;;;;;;4972486;28;20831;-76
2023/10/24 00:51:56;;;;;;;9.57;7.10;;;12.50;99.90;;;;;;4949795;28;20046;-76
2023/10/24 00:54:42;;;;;;;9.90;6.10;;;12.50;99.90;;;;;;4940520;29;20043;-76
2023/10/24 00:57:28;;;;;;;8.23;5.90;;;12.50;99.90;;;;;;4942469;28;20384;-76
2023/10/24 01:00:15;;;;;;;10.95;6.40;;;12.50;99.90;;;;;;4948822;28;20177;-75
2023/10/24 01:03:02;;;;;;;10.03;6.20;;;12.50;99.90;;;;;;4952664;28;20066;-76
2023/10/24 01:06:03;;;;;;;7.57;5.38;;;12.50;99.90;;;;;;4917974;28;20318;-76
2023/10/24 01:08:50;;;;;;;12.43;6.47;;;12.50;99.90;;;;;;4946411;28;20050;-76
2023/10/24 01:11:37;;;;;;;9.05;5.93;;;12.50;99.90;;;;;;4957533;28;20039;-76
2023/10/24 01:14:23;;;;;;;9.70;6.28;;;12.50;99.90;;;;;;4948411;28;20125;-76
2023/10/24 01:17:12;;;;;;;8.27;6.68;;;12.50;99.90;;;;;;4943148;29;20098;-76
2023/10/24 01:20:00;;;;;;;11.52;6.07;;;12.50;99.90;;;;;;4942101;29;20050;-76
2023/10/24 01:22:46;;;;;;;12.13;6.37;;;12.50;99.90;;;;;;4947363;28;20043;-76
2023/10/24 01:25:32;;;;;;;11.55;6.57;;;12.50;99.90;;;;;;4952209;28;20103;-76
2023/10/24 01:28:18;;;;;;;11.45;6.82;;;12.50;99.90;;;;;;4958376;28;20129;-76
2023/10/24 01:31:04;;;;;;;12.30;5.88;;;12.50;99.90;;;;;;4961616;28;20042;-76
2023/10/24 01:33:50;;;;;;;11.05;5.50;;;12.50;99.90;;;;;;4949313;28;20105;-76
2023/10/24 01:36:36;;;;;;;10.40;6.50;;;12.40;99.90;;;;;;4948261;28;20053;-76
2023/10/24 01:39:22;;;;;;;12.65;6.18;;;12.40;99.90;;;;;;4949920;28;20054;-76
2023/10/24 01:42:08;;;;;;;9.60;6.28;;;12.50;99.90;;;;;;4996782;28;20042;-76
2023/10/24 01:44:54;;;;;;;9.98;5.60;;;12.50;99.90;;;;;;4966961;28;20042;-76
2023/10/24 01:47:42;;;;;;;12.07;5.95;;;12.50;99.90;;;;;;4995170;28;20125;-76
2023/10/24 01:50:28;;;;;;;10.65;6.43;;;12.50;99.90;;;;;;4984641;28;20100;-76
2023/10/24 01:53:14;;;;;;;9.90;5.78;;;12.50;99.90;;;;;;4982146;28;20042;-76
2023/10/24 01:56:00;;;;;;;11.82;6.53;;;12.50;99.90;;;;;;4969007;28;20046;-76
2023/10/24 01:58:46;;;;;;;13.55;6.70;;;12.40;99.90;;;;;;4949159;28;20038;-76
2023/10/24 02:01:33;;;;;;;9.52;6.10;;;12.40;99.90;;;;;;4983717;28;20038;-76
2023/10/24 02:04:18;;;;;;;9.35;5.78;;;12.40;99.90;;;;;;4992476;28;20558;-76
2023/10/24 02:07:04;;;;;;;8.48;5.93;;;12.40;99.90;;;;;;4969323;28;20051;-76
2023/10/24 02:09:50;;;;;;;11.85;5.75;;;12.40;99.90;;;;;;4995033;28;20053;-76
2023/10/24 02:12:36;;;;;;;10.65;5.70;;;12.50;99.90;;;;;;4980704;28;20501;-76
2023/10/24 02:15:22;;;;;;;11.52;6.40;;;12.40;99.90;;;;;;4995123;28;20046;-76
2023/10/24 02:18:08;;;;;;;12.48;5.53;;;12.50;99.90;;;;;;4980816;28;20082;-76
2023/10/24 02:20:54;;;;;;;19.50;6.57;;;12.40;99.90;;;;;;4981512;28;20058;-76
2023/10/24 02:23:40;;;;;;;8.75;5.85;;;12.40;99.90;;;;;;4980853;28;20486;-76
2023/10/24 02:26:26;;;;;;;12.98;6.03;;;12.40;99.90;;;;;;4980598;28;20053;-76
2023/10/24 02:29:12;;;;;;;20.38;7.03;;;12.40;99.90;;;;;;4976774;28;20038;-76
2023/10/24 02:31:58;;;;;;;11.05;5.47;;;12.50;99.90;;;;;;5004549;28;20080;-76
2023/10/24 02:34:49;;;;;;;13.88;5.63;;;12.50;99.90;;;;;;4995204;28;20050;-76
2023/10/24 02:37:35;;;;;;;7.88;5.00;;;12.40;99.90;;;;;;4992154;28;20031;-76
2023/10/24 02:40:21;;;;;;;10.43;6.15;;;12.50;99.90;;;;;;4968276;28;20061;-76
2023/10/24 02:43:07;;;;;;;9.38;4.85;;;12.50;99.90;;;;;;4972888;28;20043;-76
2023/10/24 02:45:54;;;;;;;9.00;4.97;;;12.50;99.90;;;;;;4991906;28;20046;-76
2023/10/24 02:48:40;;;;;;;10.95;5.32;;;12.50;99.90;;;;;;4994066;28;20042;-76
2023/10/24 02:51:27;;;;;;;10.55;5.55;;;12.50;99.90;;;;;;4983601;28;20038;-76
2023/10/24 02:54:12;;;;;;;7.57;4.90;;;12.50;99.90;;;;;;5006836;28;20049;-76
2023/10/24 02:56:58;;;;;;;12.07;5.25;;;12.40;99.90;;;;;;4993369;28;20514;-76
2023/10/24 02:59:44;;;;;;;10.20;5.45;;;12.40;99.90;;;;;;4987554;28;20093;-76
2023/10/24 03:02:30;;;;;;;8.07;4.85;;;12.40;99.90;;;;;;4984619;28;20038;-76
2023/10/24 03:05:18;;;;;;;12.18;6.05;;;12.40;99.90;;;;;;4975477;28;20049;-76
2023/10/24 03:08:04;;;;;;;8.17;4.73;;;12.40;99.90;;;;;;4987410;28;20038;-76
2023/10/24 03:10:51;;;;;;;12.15;5.47;;;12.40;99.90;;;;;;4973785;28;20046;-77
2023/10/24 03:13:39;;;;;;;8.05;4.82;;;12.40;99.90;;;;;;4967792;28;20060;-76
2023/10/24 03:16:25;;;;;;;10.25;5.07;;;12.40;99.90;;;;;;4994391;28;20030;-76
2023/10/24 03:19:11;;;;;;;10.77;5.45;;;12.40;99.90;;;;;;4966318;28;20039;-76
2023/10/24 03:21:57;;;;;;;8.82;5.25;;;12.30;99.90;;;;;;4975475;28;20043;-76
2023/10/24 03:24:43;;;;;;;11.98;5.30;;;12.40;99.90;;;;;;4975039;28;20057;-76
2023/10/24 03:27:29;;;;;;;10.23;5.30;;;12.30;99.90;;;;;;4974316;28;20133;-76
2023/10/24 03:30:15;;;;;;;8.57;5.25;;;12.40;99.90;;;;;;4991233;28;20038;-76
2023/10/24 03:33:01;;;;;;;8.52;5.38;;;12.30;99.90;;;;;;4974320;28;20778;-76
2023/10/24 03:35:47;;;;;;;11.90;6.03;;;12.30;99.90;;;;;;4958043;28;20051;-76
2023/10/24 03:38:32;;;;;;;10.75;6.07;;;12.40;99.90;;;;;;4975849;28;20148;-76
2023/10/24 03:41:18;;;;;;;9.25;5.47;;;12.40;99.90;;;;;;4941260;28;20046;-76
2023/10/24 03:44:04;;;;;;;11.38;6.10;;;12.30;99.90;;;;;;4966648;28;20047;-76
2023/10/24 03:46:50;;;;;;;12.85;6.50;;;12.30;99.90;;;;;;4951388;28;20058;-76
2023/10/24 03:49:36;;;;;;;10.63;5.28;;;12.30;99.90;;;;;;4957195;28;20070;-76
2023/10/24 03:52:22;;;;;;;10.95;5.95;;;12.30;99.90;;;;;;4948904;28;20045;-76
2023/10/24 03:55:12;;;;;;;11.88;6.47;;;12.30;99.90;;;;;;4945364;29;20487;-76
2023/10/24 03:57:58;;;;;;;11.05;5.43;;;12.30;99.90;;;;;;4961989;28;20344;-76
2023/10/24 04:00:44;;;;;;;11.63;5.57;;;12.30;99.90;;;;;;4946766;28;20039;-76
2023/10/24 04:03:30;;;;;;;9.40;5.25;;;12.20;99.90;;;;;;4936328;28;20468;-76
2023/10/24 04:06:16;;;;;;;10.68;5.50;;;12.30;99.90;;;;;;4951822;28;20122;-76
2023/10/24 04:09:04;;;;;;;11.32;5.47;;;12.30;99.90;;;;;;4937043;28;20132;-76
2023/10/24 04:11:50;;;;;;;15.27;6.28;;;12.30;99.90;;;;;;4947467;28;20035;-76
2023/10/24 04:14:36;;;;;;;10.52;5.43;;;12.30;99.90;;;;;;4943809;29;20508;-76
2023/10/24 04:17:22;;;;;;;9.68;4.93;;;12.30;99.90;;;;;;4944653;28;20043;-73
2023/10/24 04:20:09;;;;;;;13.52;5.40;;;12.30;99.90;;;;;;4959771;28;20043;-73
2023/10/24 04:22:55;;;;;;;7.20;4.43;;;12.30;99.90;;;;;;4957513;28;20038;-73
2023/10/24 04:25:41;;;;;;;9.82;3.88;;;12.30;99.90;;;;;;4938078;28;20125;-76
2023/10/24 04:28:27;;;;;;;11.23;3.72;;;12.20;99.90;;;;;;4951756;28;20098;-76
2023/10/24 04:31:13;;;;;;;9.25;3.70;;;12.30;99.90;;;;;;4960577;28;20054;-76
2023/10/24 04:33:59;;;;;;;11.10;3.53;;;12.30;99.90;;;;;;4961947;28;20057;-76
2023/10/24 04:36:45;;;;;;;10.80;3.80;;;12.30;99.90;;;;;;4949925;29;20121;-76
2023/10/24 04:39:31;;;;;;;12.20;4.68;;;12.30;99.90;;;;;;4966266;28;20092;-76
2023/10/24 04:42:18;;;;;;;13.38;4.30;;;12.30;99.90;;;;;;4996019;28;20070;-76
2023/10/24 04:45:04;;;;;;;9.85;3.80;;;12.30;99.90;;;;;;4981308;28;20054;-76
2023/10/24 04:47:50;;;;;;;12.35;4.22;;;12.30;99.90;;;;;;4997883;28;20073;-76
2023/10/24 04:50:38;;;;;;;11.82;4.13;;;12.40;99.90;;;;;;4968904;28;20077;-76
2023/10/24 04:53:24;;;;;;;9.15;3.97;;;12.40;99.90;;;;;;4982039;28;20042;-77
2023/10/24 04:56:10;;;;;;;12.50;4.55;;;12.40;99.90;;;;;;4990732;28;20533;-76
2023/10/24 04:58:56;;;;;;;12.75;4.40;;;12.40;99.90;;;;;;4968952;28;20038;-76
2023/10/24 05:01:42;;;;;;;8.70;4.13;;;12.40;99.90;;;;;;4989154;28;20030;-76
2023/10/24 05:04:28;;;;;;;9.23;4.15;;;12.40;99.90;;;;;;4991702;28;20050;-76
2023/10/24 05:07:14;;;;;;;7.05;3.80;;;12.40;99.90;;;;;;4981819;28;20034;-76
2023/10/24 05:10:00;;;;;;;7.35;3.72;;;12.40;99.90;;;;;;4975258;28;20119;-76
2023/10/24 05:12:46;;;;;;;9.30;4.47;;;12.40;99.90;;;;;;4961050;28;20038;-77
2023/10/24 05:15:32;;;;;;;9.43;4.72;;;12.40;99.90;;;;;;4973395;28;20046;-76
2023/10/24 05:18:18;;;;;;;13.13;4.90;;;12.40;99.90;;;;;;4963181;28;20043;-76
2023/10/24 05:21:04;;;;;;;12.52;5.03;;;12.40;99.90;;;;;;4962845;28;20379;-76
2023/10/24 05:23:51;;;;;;;14.32;5.50;;;12.40;99.90;;;;;;4985502;28;20080;-76
2023/10/24 05:26:38;;;;;;;12.98;5.70;;;12.40;99.90;;;;;;4977339;28;20121;-76
2023/10/24 05:29:24;;;;;;;13.68;5.43;;;12.40;99.90;;;;;;4998094;28;20348;-76
2023/10/24 05:32:12;;;;;;;11.13;5.60;;;12.40;99.90;;;;;;4956783;28;20038;-75
2023/10/24 05:34:57;;;;;;;15.65;5.93;;;12.30;99.90;;;;;;4987472;28;20044;-75
2023/10/24 05:37:43;;;;;;;8.75;5.65;;;12.30;99.90;;;;;;4974210;28;20411;-75
2023/10/24 05:40:30;;;;;;;13.18;5.57;;;12.30;99.90;;;;;;4964887;28;20078;-75
2023/10/24 05:43:16;;;;;;;12.10;5.68;;;12.30;99.90;;;;;;4982371;28;20122;-75
2023/10/24 05:46:03;;;;;;;11.93;5.90;;;12.30;99.90;;;;;;4981825;28;20042;-74
2023/10/24 05:48:53;;;;;;;12.85;5.95;;;12.30;99.90;;;;;;4983778;28;20049;-74
2023/10/24 05:51:39;;;;;;;12.02;6.10;;;12.30;99.90;;;;;;4964091;28;20055;-74
2023/10/24 05:54:28;;;;;;;12.45;6.68;;;12.30;99.90;;;;;;5004981;28;20049;-74
2023/10/24 05:57:14;;;;;;;13.70;7.10;;;12.30;99.90;;;;;;4973427;28;20042;-73
2023/10/24 06:00:01;;;;;;;10.80;6.72;;;12.30;99.90;;;;;;4964778;28;20137;-74
2023/10/24 06:02:46;;;;;;;13.02;6.40;;;12.20;99.90;;;;;;4971621;28;20043;-74
2023/10/24 06:05:32;;;;;;;15.15;7.10;;;12.30;99.90;;;;;;4965914;28;20051;-76
2023/10/24 06:08:19;;;;;;;14.57;6.85;;;12.20;99.90;;;;;;4987138;28;20061;-74
2023/10/24 06:11:05;;;;;;;12.82;6.45;;;12.20;99.90;;;;;;4992405;28;20042;-73
2023/10/24 06:13:51;;;;;;;12.05;7.82;;;12.20;99.90;;;;;;4978632;28;20057;-74
2023/10/24 06:16:37;;;;;;;17.10;8.93;;;12.20;99.90;;;;;;4986840;28;20117;-74
2023/10/24 06:19:25;;;;;;;13.10;8.30;;;12.20;99.90;;;;;;4973429;28;20046;-74
2023/10/24 06:22:11;;;;;;;15.32;7.20;;;12.20;99.90;;;;;;4989481;28;20034;-74
2023/10/24 06:24:57;;;;;;;14.15;7.15;;;12.20;99.90;;;;;;4985052;28;20062;-75
2023/10/24 06:27:43;;;;;;;12.30;7.28;;;12.20;99.90;;;;;;4973832;28;20046;-74
2023/10/24 06:30:31;;;;;;;14.90;7.43;;;12.20;99.90;;;;;;4984179;28;20046;-74
2023/10/24 06:33:17;;;;;;;15.13;7.07;;;12.20;99.90;;;;;;4979162;28;20070;-74
2023/10/24 06:36:03;;;;;;;11.35;6.45;;;12.20;99.90;;;;;;4991871;28;20117;-74
2023/10/24 06:38:51;;;;;;;13.73;6.57;;;12.20;99.90;;;;;;4992598;28;20069;-73
2023/10/24 06:41:37;;;;;;;;;;;12.20;99.90;;;;;;4988440;28;20039;-74
2023/10/24 06:44:25;;;;;;;15.27;6.93;;;12.20;99.90;;;;;;4992178;28;20293;-74
2023/10/24 06:47:11;;;;;;;12.63;6.57;;;12.20;99.90;;;;;;4992958;28;20101;-74
2023/10/24 06:49:57;;;;;;;16.58;6.75;;;12.20;99.90;;;;;;4988423;28;20054;-74
2023/10/24 06:52:43;;;;;;;16.15;6.45;;;12.20;99.90;;;;;;4966453;28;20538;-74
2023/10/24 06:55:31;;;;;;;14.00;6.60;;;12.20;99.90;;;;;;4976859;28;20057;-74
2023/10/24 06:58:17;;;;;;;13.77;6.47;;;12.20;99.90;;;;;;4984320;28;20038;-74
2023/10/24 07:01:04;;;;;;;13.80;7.00;;;12.10;99.90;;;;;;5002931;28;20375;-74
2023/10/24 07:03:50;;;;;;;12.77;7.00;;;12.10;99.90;;;;;;4984774;28;20034;-74
2023/10/24 07:06:36;;;;;;;14.70;7.25;;;12.10;99.90;;;;;;4987128;28;20113;-74
2023/10/24 07:09:22;;;;;;;11.18;6.65;;;12.20;99.90;;;;;;4991791;28;20452;-74
2023/10/24 07:12:08;;;;;;;12.10;6.78;;;12.10;99.90;;;;;;4980078;28;20038;-75
2023/10/24 07:14:56;;;;;;;12.15;6.78;;;12.10;99.90;;;;;;4984108;28;20043;-74
2023/10/24 07:17:42;;;;;;;11.10;6.35;;;12.10;99.90;;;;;;4991304;28;20046;-74
2023/10/24 07:20:28;;;;;;;14.85;6.38;;;12.10;99.90;;;;;;4991521;28;20651;-74
2023/10/24 07:23:14;;;;;;;13.15;7.28;;;12.10;99.90;;;;;;4991888;28;20043;-74
2023/10/24 07:26:00;;;;;;;12.63;7.03;;;12.10;99.90;;;;;;4993294;28;20068;-74
2023/10/24 07:28:46;;;;;;;14.65;6.88;;;12.10;99.90;;;;;;4964279;28;20121;-74
2023/10/24 07:31:32;;;;;;;10.77;6.03;;;12.20;99.90;;;;;;4985021;28;20042;-74
2023/10/24 07:34:18;;;;;;;16.00;6.93;;;12.20;99.90;;;;;;4979379;28;20046;-74
2023/10/24 07:37:05;;;;;;;12.88;6.47;;;12.20;99.90;;;;;;4969878;28;20039;-74
2023/10/24 07:39:51;;;;;;;12.98;6.88;;;12.20;99.90;;;;;;4967720;28;20046;-75
2023/10/24 07:42:36;;;;;;;12.20;5.88;;;12.20;99.90;;;;;;4983031;28;20038;-74
2023/10/24 07:45:22;;;;;;;11.45;6.63;;;12.20;99.90;;;;;;4982437;28;20038;-74
2023/10/24 07:48:08;;;;;;;9.55;5.93;;;12.20;99.90;;;;;;4965688;28;20108;-74
2023/10/24 07:50:58;;;;;;;11.10;6.65;;;12.20;99.90;;;;;;4977522;28;20046;-74
2023/10/24 07:53:44;;;;;;;15.45;6.82;;;12.20;99.90;;;;;;4991837;28;20129;-74
2023/10/24 07:56:30;;;;;;;11.23;6.35;;;12.20;99.90;;;;;;4968145;28;20046;-74
2023/10/24 07:59:16;;;;;;;11.50;5.75;;;12.20;99.90;;;;;;4983716;28;20037;-74
2023/10/24 08:02:02;;;;;;;14.07;7.72;;;12.20;99.90;;;;;;4948214;28;20043;-74
2023/10/24 08:04:48;;;;;;;11.45;6.20;;;12.30;99.90;;;;;;4972205;28;20409;-74
2023/10/24 08:07:34;;;;;;;13.73;5.88;;;12.30;99.90;;;;;;5003388;28;20042;-73
2023/10/24 08:10:20;;;;;;;10.52;6.03;;;12.20;99.90;;;;;;4983267;28;20045;-74
2023/10/24 08:13:05;;;;;;;10.35;5.95;;;12.30;99.90;;;;;;4992004;28;20050;-73
2023/10/24 08:15:52;;;;;;;14.55;7.00;;;12.30;99.90;;;;;;4969208;28;20145;-74
2023/10/24 08:18:38;;;;;;;10.32;5.80;;;12.40;99.90;;;;;;4978947;28;20073;-73
2023/10/24 08:21:24;;;;;;;16.17;7.88;;;12.40;99.90;;;;;;4968095;28;20042;-74
2023/10/24 08:24:10;;;;;;;23.38;13.18;;;12.40;99.90;;;;;;4963177;28;20078;-74
2023/10/24 08:26:56;;;;;;;19.98;8.07;;;12.40;99.90;;;;;;4967583;28;20054;-74
2023/10/24 08:29:42;;;;;;;10.48;5.65;;;12.50;99.90;;;;;;4973051;28;20042;-74
2023/10/24 08:32:29;;;;;;;9.48;4.90;;;12.50;99.90;;;;;;4979155;28;20398;-74
2023/10/24 08:35:15;;;;;;;9.20;5.10;;;12.50;99.90;;;;;;5005791;28;20061;-74
2023/10/24 08:38:03;;;;;;;10.38;5.03;;;12.50;99.90;;;;;;4970768;28;20463;-74
2023/10/24 08:40:49;;;;;;;13.18;5.20;;;12.50;99.90;;;;;;4995656;28;20141;-74
2023/10/24 08:43:35;;;;;;;10.25;5.20;;;12.60;99.90;;;;;;4991885;28;20078;-73
2023/10/24 08:46:21;;;;;;;9.68;5.13;;;12.60;99.90;;;;;;4994784;28;20046;-74
2023/10/24 08:49:07;;;;;;;9.85;5.80;;;12.60;99.90;;;;;;4976843;28;20561;-74
2023/10/24 08:51:53;;;;;;;12.25;4.72;;;12.60;99.90;;;;;;4958470;28;20049;-74
2023/10/24 08:54:39;;;;;;;12.05;5.20;;;12.70;99.90;;;;;;4967987;28;20048;-74
2023/10/24 08:57:30;;;;;;;11.93;5.45;;;12.70;99.90;;;;;;5001124;28;20038;-74
2023/10/24 09:00:17;;;;;;;10.55;4.40;;;12.70;99.90;;;;;;4993218;28;20050;-74
2023/10/24 09:03:03;;;;;;;7.50;4.37;;;12.70;99.90;;;;;;5001768;28;20038;-74
2023/10/24 09:05:49;;;;;;;9.27;4.68;;;12.70;99.90;;;;;;4958709;28;20038;-74
2023/10/24 09:08:35;;;;;;;8.65;4.82;;;12.80;99.90;;;;;;4997924;28;20112;-74
2023/10/24 09:11:23;;;;;;;9.60;4.38;;;12.70;99.90;;;;;;4994478;28;20124;-74
2023/10/24 09:14:09;;;;;;;10.52;4.93;;;12.80;99.90;;;;;;4992676;28;20060;-74
2023/10/24 09:17:06;;;;;;;15.40;5.05;;;12.80;99.90;;;;;;4980412;28;20045;-74
2023/10/24 09:19:56;;;;;;;8.35;4.80;;;12.80;99.90;;;;;;4958862;28;20038;-74
2023/10/24 09:22:42;;;;;;;10.15;4.80;;;12.90;99.90;;;;;;4993191;28;20125;-74
2023/10/24 09:25:29;;;;;;;9.63;4.85;;;12.80;99.90;;;;;;4975115;28;20042;-74
2023/10/24 09:28:16;;;;;;;11.40;5.35;;;12.90;99.90;;;;;;4970972;28;20054;-74
2023/10/24 09:31:03;;;;;;;12.65;5.28;;;12.90;99.90;;;;;;4990439;28;20053;-74
2023/10/24 09:33:50;;;;;;;9.25;4.90;;;12.90;99.90;;;;;;4972594;28;20042;-74
2023/10/24 09:36:36;;;;;;;9.23;4.18;;;12.90;99.90;;;;;;4972513;28;20379;-74
2023/10/24 09:39:22;;;;;;;8.25;4.57;;;12.90;99.90;;;;;;4979647;28;20080;-74
2023/10/24 09:42:10;;;;;;;10.70;4.75;;;12.90;99.90;;;;;;4990213;28;20041;-74
2023/10/24 09:44:57;;;;;;;9.75;4.32;;;13.00;99.90;;;;;;4970249;28;20046;-74
2023/10/24 09:47:43;;;;;;;8.63;4.68;;;12.90;99.90;;;;;;4962021;28;20097;-74
2023/10/24 09:50:29;;;;;;;11.95;6.00;;;13.00;99.90;;;;;;4961394;28;20057;-74
2023/10/24 09:53:15;;;;;;;9.80;4.82;;;13.00;99.90;;;;;;4967533;28;20141;-74
2023/10/24 09:56:01;;;;;;;10.10;5.13;;;13.00;99.90;;;;;;4965393;28;20462;-75
2023/10/24 09:58:47;;;;;;;10.02;4.95;;;13.00;99.90;;;;;;4974441;28;20371;-74
2023/10/24 10:01:33;;;;;;;11.38;5.20;;;13.00;99.90;;;;;;4986687;28;20034;-74
2023/10/24 10:04:19;;;;;;;9.13;4.95;;;13.00;99.90;;;;;;4987776;28;20125;-74
2023/10/24 10:07:06;;;;;;;9.75;4.78;;;13.00;99.90;;;;;;4966021;28;20059;-74
2023/10/24 10:09:53;;;;;;;9.23;4.55;;;13.00;99.90;;;;;;4965690;28;20099;-73
2023/10/24 10:12:39;;;;;;;9.32;4.30;;;13.00;99.90;;;;;;4974765;28;20479;-73
2023/10/24 10:15:29;;;;;;;9.63;4.75;;;13.00;99.90;;;;;;4984529;28;20101;-74
2023/10/24 10:18:43;;;;;;;7.38;4.65;;;13.00;99.90;;;;;;4965327;28;20603;-74
2023/10/24 10:21:36;;;;;;;7.65;4.90;;;13.10;99.90;;;;;;4994331;28;20042;-74
2023/10/24 10:24:43;;;;;;;11.27;5.10;;;13.10;99.90;;;;;;4984308;28;20073;-74
2023/10/24 10:28:18;;;;;;;13.17;5.63;;;13.10;99.90;;;;;;4982336;28;20042;-74
2023/10/24 10:31:23;;;;;;;9.20;5.18;;;13.10;99.90;;;;;;4931735;29;20143;-75
2023/10/24 10:34:09;;;;;;;11.52;5.28;;;13.10;99.90;;;;;;4924884;29;20043;-75
2023/10/24 10:36:56;;;;;;;10.05;4.72;;;13.20;99.90;;;;;;4977054;28;20044;-74
2023/10/24 10:39:42;;;;;;;11.00;5.10;;;13.20;99.90;;;;;;4967941;28;20125;-74
2023/10/24 10:42:50;;;;;;;9.32;4.45;;;13.20;99.90;;;;;;4987536;28;20069;-74
2023/10/24 10:45:37;;;;;;;9.88;4.50;;;13.20;99.90;;;;;;4971551;28;20046;-74
2023/10/24 10:48:23;;;;;;;10.48;5.10;;;13.20;99.90;;;;;;4981752;28;20046;-75
2023/10/24 10:51:22;;;;;;;9.63;4.30;;;13.30;99.90;;;;;;4968694;28;20093;-74
2023/10/24 10:54:30;;;;;;;10.45;4.57;;;13.30;99.90;;;;;;4977377;28;20297;-74
2023/10/24 10:57:17;;;;;;;6.95;4.00;;;13.30;99.90;;;;;;4991694;28;20034;-74
2023/10/24 11:00:04;;;;;;;7.60;4.15;;;13.40;99.90;;;;;;4964140;28;20038;-74
2023/10/24 11:03:13;;;;;;;7.00;3.55;;;13.40;99.90;;;;;;4985051;28;20030;-75
2023/10/24 11:06:12;;;;;;;8.82;3.90;;;13.40;99.90;;;;;;4997382;28;20053;-74
2023/10/24 11:09:13;;;;;;;6.43;4.25;;;13.40;99.90;;;;;;4992154;28;20137;-74
2023/10/24 11:12:20;;;;;;;9.40;4.10;;;13.40;99.90;;;;;;4988796;28;20074;-74
2023/10/24 11:15:10;;;;;;;7.28;3.50;;;13.40;99.90;;;;;;4991462;28;20038;-74
2023/10/24 11:17:57;;;;;;;6.50;3.38;;;13.50;99.90;;;;;;4992114;28;20043;-74
2023/10/24 11:20:43;;;;;;;9.88;3.60;;;13.50;99.90;;;;;;4979600;28;20551;-75
2023/10/24 11:23:29;;;;;;;9.38;3.05;;;13.50;99.90;;;;;;4959920;28;20131;-74
2023/10/24 11:26:15;;;;;;;10.18;3.55;;;13.50;99.90;;;;;;4975792;28;20038;-75
2023/10/24 11:29:01;;;;;;;7.95;3.58;;;13.50;99.90;;;;;;4962721;28;20165;-74
2023/10/24 11:31:47;;;;;;;11.18;4.40;;;13.50;99.90;;;;;;4961683;28;20085;-74
2023/10/24 11:34:33;;;;;;;6.85;4.10;;;13.50;99.90;;;;;;4971472;28;20125;-74
2023/10/24 11:37:19;;;;;;;8.85;3.67;;;13.60;99.90;;;;;;4975056;28;20037;-74
2023/10/24 11:40:06;;;;;;;7.35;3.63;;;13.60;99.90;;;;;;4964554;28;20058;-75
2023/10/24 11:43:03;;;;;;;10.80;3.90;;;13.60;99.90;;;;;;4981531;28;20042;-74
2023/10/24 11:45:49;;;;;;;7.32;3.10;;;13.60;99.90;;;;;;4965816;28;20048;-74
2023/10/24 11:48:35;;;;;;;9.32;3.22;;;13.60;99.90;;;;;;4974259;28;20051;-74
2023/10/24 11:51:21;;;;;;;9.68;4.05;;;13.60;99.90;;;;;;4971619;28;20382;-74
2023/10/24 11:54:07;;;;;;;8.38;4.15;;;13.60;99.90;;;;;;4972407;28;20058;-74
2023/10/24 11:56:54;;;;;;;6.25;2.97;;;13.60;99.90;;;;;;4992698;28;20598;-74
2023/10/24 11:59:40;;;;;;;7.82;3.90;;;13.60;99.90;;;;;;4973011;28;20038;-74
2023/10/24 12:02:26;;;;;;;5.97;3.28;;;13.60;99.90;;;;;;4965042;28;20042;-74
2023/10/24 12:05:12;;;;;;;6.57;2.95;;;13.60;99.90;;;;;;4982097;28;20102;-75
2023/10/24 12:07:59;;;;;;;7.03;3.05;;;13.70;99.90;;;;;;4975661;28;20054;-75
2023/10/24 12:10:54;;;;;;;5.88;3.10;;;13.70;99.90;;;;;;4973453;28;20121;-75
2023/10/24 12:13:40;;;;;;;6.88;3.15;;;13.70;99.90;;;;;;4978337;28;20478;-74
2023/10/24 12:16:34;;;;;;;6.40;3.40;;;13.70;99.90;;;;;;4971529;28;20483;-75
2023/10/24 12:19:21;;;;;;;6.18;2.80;;;13.80;99.90;;;;;;4988552;28;20046;-75
2023/10/24 12:22:07;;;;;;;7.57;3.13;;;13.80;99.90;;;;;;4984169;28;20046;-75
2023/10/24 12:24:54;;;;;;;6.25;2.50;;;13.80;99.90;;;;;;4979904;28;20062;-75
2023/10/24 12:27:40;;;;;;;11.45;3.00;;;13.80;99.90;;;;;;4977453;28;20043;-75
2023/10/24 12:30:26;;;;;;;5.57;2.40;;;13.80;99.90;;;;;;4992415;28;20100;-75
2023/10/24 12:33:12;;;;;;;8.02;2.60;;;13.80;99.90;;;;;;4982628;28;20065;-75
2023/10/24 12:36:00;;;;;;;7.25;3.13;;;13.80;99.90;;;;;;4969629;28;20066;-75
2023/10/24 12:38:46;;;;;;;;;;;13.90;99.90;;;;;;4980753;28;20061;-75
2023/10/24 12:41:32;;;;;;;6.18;2.80;;;13.90;99.90;;;;;;4983793;28;19957;-75
2023/10/24 12:44:18;;;;;;;8.10;3.15;;;13.90;99.90;;;;;;4995211;28;20050;-75
2023/10/24 12:47:04;;;;;;;6.75;2.50;;;13.90;99.90;;;;;;4984944;28;20110;-75
2023/10/24 12:49:50;;;;;;;11.77;3.45;;;13.80;99.90;;;;;;4976128;28;20043;-75
2023/10/24 12:52:36;;;;;;;6.43;2.80;;;13.90;99.90;;;;;;4976554;28;20093;-75
2023/10/24 12:55:22;;;;;;;5.68;3.20;;;13.90;99.90;;;;;;5008015;28;20108;-75
2023/10/24 12:58:08;;;;;;;7.72;2.67;;;13.90;99.90;;;;;;4982168;28;20030;-75
2023/10/24 13:00:55;;;;;;;7.40;3.45;;;13.80;99.90;;;;;;4990225;28;20817;-75
2023/10/24 13:03:41;;;;;;;6.18;2.78;;;13.80;99.90;;;;;;4995324;28;20038;-75
2023/10/24 13:06:27;;;;;;;5.75;2.83;;;13.80;99.90;;;;;;4993952;28;20046;-75
2023/10/24 13:09:14;;;;;;;7.97;3.28;;;13.80;99.90;;;;;;4997242;28;20109;-75
2023/10/24 13:12:01;;;;;;;7.93;3.22;;;13.80;99.90;;;;;;4976357;28;20109;-75
2023/10/24 13:14:47;;;;;;;7.43;3.00;;;13.80;99.90;;;;;;4984279;28;20043;-75
2023/10/24 13:17:33;;;;;;;7.60;3.03;;;13.80;99.90;;;;;;4996357;28;20103;-75
2023/10/24 13:20:19;;;;;;;5.22;2.60;;;13.80;99.90;;;;;;4983132;28;20125;-75
2023/10/24 13:23:05;;;;;;;12.02;3.00;;;13.80;99.90;;;;;;4992862;28;20041;-75
2023/10/24 13:25:51;;;;;;;8.65;3.58;;;13.80;99.90;;;;;;4972310;28;20419;-75
2023/10/24 13:28:37;;;;;;;8.57;3.60;;;13.80;99.90;;;;;;4976576;28;20047;-75
2023/10/24 13:31:23;;;;;;;6.88;3.35;;;13.80;99.90;;;;;;4985233;28;20048;-75
2023/10/24 13:34:09;;;;;;;9.57;2.90;;;13.80;99.90;;;;;;4991865;28;20050;-75
2023/10/24 13:36:55;;;;;;;8.18;3.50;;;13.80;99.90;;;;;;4981148;28;20371;-74
2023/10/24 13:39:41;;;;;;;7.22;3.20;;;13.80;99.90;;;;;;4981264;28;20068;-75
2023/10/24 13:42:27;;;;;;;9.75;3.92;;;13.80;99.90;;;;;;4969662;28;20089;-74
2023/10/24 13:45:13;;;;;;;9.07;3.75;;;13.80;99.90;;;;;;4989507;28;20467;-75
2023/10/24 13:47:59;;;;;;;6.82;3.97;;;13.80;99.90;;;;;;4989510;28;20077;-74
2023/10/24 13:50:45;;;;;;;9.48;4.40;;;13.70;99.90;;;;;;4963506;28;20089;-74
2023/10/24 13:53:31;;;;;;;8.70;3.75;;;13.80;99.90;;;;;;4991323;28;20462;-75
2023/10/24 13:56:17;;;;;;;6.07;3.72;;;13.80;99.90;;;;;;4977068;28;20046;-75
2023/10/24 13:59:03;;;;;;;9.60;3.47;;;13.70;99.90;;;;;;4996157;28;20135;-74
2023/10/24 14:01:49;;;;;;;7.32;4.35;;;13.80;99.90;;;;;;4997477;28;20956;-75
2023/10/24 14:04:36;;;;;;;9.82;3.97;;;13.70;99.90;;;;;;4975888;28;20129;-74
2023/10/24 14:07:22;;;;;;;8.48;3.90;;;13.70;99.90;;;;;;4974984;28;20038;-74
2023/10/24 14:10:10;;;;;;;8.23;3.58;;;13.70;99.90;;;;;;4980223;28;20077;-75
2023/10/24 14:12:56;;;;;;;5.68;3.20;;;13.70;99.90;;;;;;4979895;28;20064;-74
2023/10/24 14:15:41;;;;;;;7.28;3.47;;;13.70;99.90;;;;;;4990269;28;20050;-75
2023/10/24 14:18:27;;;;;;;7.88;3.72;;;13.70;99.90;;;;;;4983208;28;20031;-73
2023/10/24 14:21:14;;;;;;;9.45;4.07;;;13.70;99.90;;;;;;4985803;28;20043;-73
2023/10/24 14:24:00;;;;;;;9.88;4.40;;;13.70;99.90;;;;;;4982664;28;20066;-73
2023/10/24 14:26:46;;;;;;;9.45;4.70;;;13.70;99.90;;;;;;4989537;28;20046;-74